sensor_id;sensor_type;location;lat;lon;timestamp;pressure;altitude;pressure_sealevel;temperature;humidity
56074;BME280;41950;55.840;37.442;2024-03-02T00:02:01;100918.06;;;3.23;82.00
56074;BME280;41950;55.840;37.442;2024-03-02T00:04:26;100939.56;;;3.26;81.70
56074;BME280;41950;55.840;37.442;2024-03-02T00:06:53;100917.06;;;3.18;81.64
56074;BME280;41950;55.840;37.442;2024-03-02T00:09:21;100926.66;;;3.23;81.71
56074;BME280;41950;55.840;37.442;2024-03-02T00:11:47;100929.25;;;3.25;81.84
56074;BME280;41950;55.840;37.442;2024-03-02T00:14:12;100911.84;;;3.15;81.82
56074;BME280;41950;55.840;37.442;2024-03-02T00:16:38;100906.47;;;3.07;81.94
56074;BME280;41950;55.840;37.442;2024-03-02T00:19:05;100924.81;;;3.19;81.79
56074;BME280;41950;55.840;37.442;2024-03-02T00:21:32;100916.00;;;3.11;81.93
56074;BME280;41950;55.840;37.442;2024-03-02T00:23:59;100926.44;;;3.17;81.86
56074;BME280;41950;55.840;37.442;2024-03-02T00:26:25;100922.09;;;3.15;82.16
56074;BME280;41950;55.840;37.442;2024-03-02T00:28:54;100911.56;;;3.05;82.40
56074;BME280;41950;55.840;37.442;2024-03-02T00:31:22;100928.97;;;3.16;82.15
56074;BME280;41950;55.840;37.442;2024-03-02T00:33:49;100893.09;;;2.90;82.39
56074;BME280;41950;55.840;37.442;2024-03-02T00:36:16;100910.59;;;3.02;82.52
56074;BME280;41950;55.840;37.442;2024-03-02T00:38:50;100890.72;;;2.96;82.29
56074;BME280;41950;55.840;37.442;2024-03-02T00:41:21;100934.25;;;3.20;82.26
56074;BME280;41950;55.840;37.442;2024-03-02T00:43:58;100925.59;;;3.17;82.27
56074;BME280;41950;55.840;37.442;2024-03-02T00:46:26;100901.13;;;3.01;82.19
56074;BME280;41950;55.840;37.442;2024-03-02T00:48:54;100893.28;;;2.96;82.45
56074;BME280;41950;55.840;37.442;2024-03-02T00:51:25;100932.59;;;3.22;82.26
56074;BME280;41950;55.840;37.442;2024-03-02T00:53:52;100929.84;;;3.16;82.14
56074;BME280;41950;55.840;37.442;2024-03-02T00:56:20;100928.91;;;3.14;82.17
56074;BME280;41950;55.840;37.442;2024-03-02T00:58:46;100860.81;;;2.71;82.32
56074;BME280;41950;55.840;37.442;2024-03-02T01:01:11;100928.81;;;3.11;82.29
56074;BME280;41950;55.840;37.442;2024-03-02T01:03:37;100926.16;;;3.08;82.21
56074;BME280;41950;55.840;37.442;2024-03-02T01:06:04;100919.97;;;3.01;82.36
56074;BME280;41950;55.840;37.442;2024-03-02T01:08:30;100889.25;;;2.77;82.08
56074;BME280;41950;55.840;37.442;2024-03-02T01:10:56;100950.22;;;3.12;82.62
56074;BME280;41950;55.840;37.442;2024-03-02T01:13:22;100943.19;;;3.06;82.29
56074;BME280;41950;55.840;37.442;2024-03-02T01:15:49;100949.25;;;3.08;82.47
56074;BME280;41950;55.840;37.442;2024-03-02T01:18:14;100889.84;;;2.70;82.50
56074;BME280;41950;55.840;37.442;2024-03-02T01:20:40;100922.94;;;2.88;82.38
56074;BME280;41950;55.840;37.442;2024-03-02T01:23:06;100925.66;;;2.93;82.22
56074;BME280;41950;55.840;37.442;2024-03-02T01:25:32;100935.13;;;2.95;82.38
56074;BME280;41950;55.840;37.442;2024-03-02T01:27:57;100930.78;;;2.93;82.05
56074;BME280;41950;55.840;37.442;2024-03-02T01:30:23;100949.97;;;3.04;82.09
56074;BME280;41950;55.840;37.442;2024-03-02T01:32:49;100909.00;;;2.80;82.33
56074;BME280;41950;55.840;37.442;2024-03-02T01:35:14;100933.66;;;3.02;82.40
56074;BME280;41950;55.840;37.442;2024-03-02T01:37:41;100919.78;;;2.97;82.16
56074;BME280;41950;55.840;37.442;2024-03-02T01:40:07;100918.16;;;2.99;82.25
56074;BME280;41950;55.840;37.442;2024-03-02T01:42:38;100933.03;;;3.09;81.92
56074;BME280;41950;55.840;37.442;2024-03-02T01:45:08;100942.38;;;3.07;81.76
56074;BME280;41950;55.840;37.442;2024-03-02T01:47:34;100923.09;;;2.93;82.22
56074;BME280;41950;55.840;37.442;2024-03-02T01:50:00;100933.47;;;2.97;82.25
56074;BME280;41950;55.840;37.442;2024-03-02T01:52:29;100919.44;;;2.86;82.09
56074;BME280;41950;55.840;37.442;2024-03-02T01:54:55;100896.66;;;2.70;82.22
56074;BME280;41950;55.840;37.442;2024-03-02T01:57:21;100883.91;;;2.71;82.28
56074;BME280;41950;55.840;37.442;2024-03-02T01:59:47;100927.50;;;2.97;82.15
56074;BME280;41950;55.840;37.442;2024-03-02T02:02:14;100944.72;;;3.01;82.05
56074;BME280;41950;55.840;37.442;2024-03-02T02:04:40;100866.19;;;2.52;82.21
56074;BME280;41950;55.840;37.442;2024-03-02T02:07:06;100945.44;;;2.97;82.31
56074;BME280;41950;55.840;37.442;2024-03-02T02:09:32;100944.56;;;2.96;82.30
56074;BME280;41950;55.840;37.442;2024-03-02T02:11:58;100949.97;;;3.04;82.16
56074;BME280;41950;55.840;37.442;2024-03-02T02:14:24;100949.97;;;3.04;82.23
56074;BME280;41950;55.840;37.442;2024-03-02T02:16:50;100951.63;;;3.02;82.08
56074;BME280;41950;55.840;37.442;2024-03-02T02:19:18;100884.56;;;2.66;82.12
56074;BME280;41950;55.840;37.442;2024-03-02T02:21:43;100947.34;;;3.02;82.06
56074;BME280;41950;55.840;37.442;2024-03-02T02:24:09;100952.31;;;2.98;82.25
56074;BME280;41950;55.840;37.442;2024-03-02T02:26:34;100946.94;;;2.90;82.27
56074;BME280;41950;55.840;37.442;2024-03-02T02:29:00;100951.38;;;2.96;82.30
56074;BME280;41950;55.840;37.442;2024-03-02T02:31:26;100943.16;;;3.04;81.95
56074;BME280;41950;55.840;37.442;2024-03-02T02:33:51;100956.84;;;3.05;81.86
56074;BME280;41950;55.840;37.442;2024-03-02T02:36:17;100967.88;;;3.02;82.04
56074;BME280;41950;55.840;37.442;2024-03-02T02:38:46;100959.22;;;3.00;81.96
56074;BME280;41950;55.840;37.442;2024-03-02T02:41:13;100961.88;;;3.02;81.97
56074;BME280;41950;55.840;37.442;2024-03-02T02:43:39;100941.66;;;2.86;81.96
56074;BME280;41950;55.840;37.442;2024-03-02T02:46:07;100922.41;;;2.73;82.23
56074;BME280;41950;55.840;37.442;2024-03-02T02:48:32;100968.50;;;2.97;82.20
56074;BME280;41950;55.840;37.442;2024-03-02T02:50:58;100956.50;;;2.96;82.25
56074;BME280;41950;55.840;37.442;2024-03-02T02:53:24;100953.22;;;3.00;82.10
56074;BME280;41950;55.840;37.442;2024-03-02T02:55:49;100955.66;;;2.95;82.18
56074;BME280;41950;55.840;37.442;2024-03-02T02:58:15;100947.91;;;2.94;82.06
56074;BME280;41950;55.840;37.442;2024-03-02T03:00:41;100938.88;;;2.79;82.27
56074;BME280;41950;55.840;37.442;2024-03-02T03:03:06;100963.34;;;2.95;82.35
56074;BME280;41950;55.840;37.442;2024-03-02T03:05:32;100957.34;;;2.95;82.08
56074;BME280;41950;55.840;37.442;2024-03-02T03:07:58;100924.03;;;2.71;81.98
56074;BME280;41950;55.840;37.442;2024-03-02T03:10:23;100973.50;;;2.92;82.37
56074;BME280;41950;55.840;37.442;2024-03-02T03:12:51;100907.28;;;2.55;82.25
56074;BME280;41950;55.840;37.442;2024-03-02T03:15:17;100959.59;;;2.86;82.26
56074;BME280;41950;55.840;37.442;2024-03-02T03:17:43;100937.63;;;2.68;82.28
56074;BME280;41950;55.840;37.442;2024-03-02T03:20:09;100954.22;;;2.78;82.41
56074;BME280;41950;55.840;37.442;2024-03-02T03:22:40;100951.47;;;2.73;82.48
56074;BME280;41950;55.840;37.442;2024-03-02T03:25:06;100936.72;;;2.66;82.49
56074;BME280;41950;55.840;37.442;2024-03-02T03:27:35;100960.41;;;2.85;82.53
56074;BME280;41950;55.840;37.442;2024-03-02T03:30:01;100968.97;;;2.85;82.37
56074;BME280;41950;55.840;37.442;2024-03-02T03:32:29;100872.34;;;2.33;82.41
56074;BME280;41950;55.840;37.442;2024-03-02T03:34:55;100962.13;;;2.84;82.35
56074;BME280;41950;55.840;37.442;2024-03-02T03:37:20;100952.47;;;2.77;82.50
56074;BME280;41950;55.840;37.442;2024-03-02T03:39:46;100932.59;;;2.71;82.10
56074;BME280;41950;55.840;37.442;2024-03-02T03:42:12;100965.66;;;2.88;82.39
56074;BME280;41950;55.840;37.442;2024-03-02T03:44:37;100953.66;;;2.87;82.62
56074;BME280;41950;55.840;37.442;2024-03-02T03:47:04;100924.19;;;2.74;82.19
56074;BME280;41950;55.840;37.442;2024-03-02T03:49:30;100943.34;;;2.85;82.30
56074;BME280;41950;55.840;37.442;2024-03-02T03:51:56;100921.63;;;2.74;82.01
56074;BME280;41950;55.840;37.442;2024-03-02T03:54:21;100877.72;;;2.41;81.96
56074;BME280;41950;55.840;37.442;2024-03-02T03:56:47;100890.06;;;2.51;82.13
56074;BME280;41950;55.840;37.442;2024-03-02T03:59:13;100963.25;;;2.92;82.09
56074;BME280;41950;55.840;37.442;2024-03-02T04:01:38;100952.88;;;2.89;81.92
56074;BME280;41950;55.840;37.442;2024-03-02T04:04:04;100951.09;;;2.87;82.25
56074;BME280;41950;55.840;37.442;2024-03-02T04:06:30;100955.34;;;2.86;81.94
56074;BME280;41950;55.840;37.442;2024-03-02T04:08:56;100950.22;;;2.86;81.89
56074;BME280;41950;55.840;37.442;2024-03-02T04:11:21;100953.56;;;2.84;82.05
56074;BME280;41950;55.840;37.442;2024-03-02T04:13:47;100940.53;;;2.77;82.01
56074;BME280;41950;55.840;37.442;2024-03-02T04:16:13;100759.13;;;1.69;81.85
56074;BME280;41950;55.840;37.442;2024-03-02T04:18:38;100913.19;;;2.53;81.89
56074;BME280;41950;55.840;37.442;2024-03-02T04:21:05;100958.53;;;2.79;82.08
56074;BME280;41950;55.840;37.442;2024-03-02T04:23:31;100950.50;;;2.70;81.91
56074;BME280;41950;55.840;37.442;2024-03-02T04:25:56;100942.69;;;2.67;81.76
56074;BME280;41950;55.840;37.442;2024-03-02T04:28:22;100936.72;;;2.66;81.90
56074;BME280;41950;55.840;37.442;2024-03-02T04:30:48;100962.78;;;2.78;81.72
56074;BME280;41950;55.840;37.442;2024-03-02T04:33:13;100933.13;;;2.61;81.66
56074;BME280;41950;55.840;37.442;2024-03-02T04:35:39;100947.84;;;2.67;81.80
56074;BME280;41950;55.840;37.442;2024-03-02T04:38:05;100946.19;;;2.69;81.76
56074;BME280;41950;55.840;37.442;2024-03-02T04:40:30;100962.78;;;2.78;81.58
56074;BME280;41950;55.840;37.442;2024-03-02T04:42:57;100969.56;;;2.76;81.38
56074;BME280;41950;55.840;37.442;2024-03-02T04:45:24;100953.16;;;2.73;81.25
56074;BME280;41950;55.840;37.442;2024-03-02T04:47:50;100940.75;;;2.60;81.52
56074;BME280;41950;55.840;37.442;2024-03-02T04:50:16;100961.31;;;2.61;81.37
56074;BME280;41950;55.840;37.442;2024-03-02T04:52:41;100962.28;;;2.65;81.91
56074;BME280;41950;55.840;37.442;2024-03-02T04:55:07;100938.66;;;2.48;81.68
56074;BME280;41950;55.840;37.442;2024-03-02T04:57:43;100951.00;;;2.60;81.65
56074;BME280;41950;55.840;37.442;2024-03-02T05:00:09;100942.28;;;2.55;81.54
56074;BME280;41950;55.840;37.442;2024-03-02T05:02:35;100939.78;;;2.56;81.54
56074;BME280;41950;55.840;37.442;2024-03-02T05:05:01;100962.63;;;2.74;81.46
56074;BME280;41950;55.840;37.442;2024-03-02T05:07:29;100937.53;;;2.65;81.55
56074;BME280;41950;55.840;37.442;2024-03-02T05:09:55;100945.41;;;2.71;81.58
56074;BME280;41950;55.840;37.442;2024-03-02T05:12:21;100950.88;;;2.81;81.56
56074;BME280;41950;55.840;37.442;2024-03-02T05:15:14;100940.63;;;2.81;81.48
56074;BME280;41950;55.840;37.442;2024-03-02T05:17:41;100939.75;;;2.80;80.96
56074;BME280;41950;55.840;37.442;2024-03-02T05:20:10;100903.94;;;2.58;81.31
56074;BME280;41950;55.840;37.442;2024-03-02T05:22:37;100923.41;;;2.76;81.13
56074;BME280;41950;55.840;37.442;2024-03-02T05:25:04;100897.13;;;2.58;80.86
56074;BME280;41950;55.840;37.442;2024-03-02T05:27:31;100941.56;;;2.83;80.89
56074;BME280;41950;55.840;37.442;2024-03-02T05:30:00;100950.38;;;2.91;80.68
56074;BME280;41950;55.840;37.442;2024-03-02T05:32:27;100931.19;;;2.79;80.63
56074;BME280;41950;55.840;37.442;2024-03-02T05:34:53;100957.28;;;2.93;80.56
56074;BME280;41950;55.840;37.442;2024-03-02T05:37:19;100962.50;;;2.96;80.38
56074;BME280;41950;55.840;37.442;2024-03-02T05:39:45;100902.47;;;2.64;80.25
56074;BME280;41950;55.840;37.442;2024-03-02T05:42:10;100925.16;;;2.77;80.33
56074;BME280;41950;55.840;37.442;2024-03-02T05:44:39;100935.59;;;2.84;80.47
56074;BME280;41950;55.840;37.442;2024-03-02T05:47:07;100970.44;;;3.02;80.27
56074;BME280;41950;55.840;37.442;2024-03-02T05:49:36;100949.50;;;2.90;79.95
56074;BME280;41950;55.840;37.442;2024-03-02T05:52:01;100963.50;;;3.00;79.91
56074;BME280;41950;55.840;37.442;2024-03-02T05:54:28;100969.44;;;2.99;79.92
56074;BME280;41950;55.840;37.442;2024-03-02T05:56:54;100898.69;;;2.53;79.83
56074;BME280;41950;55.840;37.442;2024-03-02T05:59:19;100972.66;;;2.93;80.08
56074;BME280;41950;55.840;37.442;2024-03-02T06:01:46;100968.22;;;2.88;79.80
56074;BME280;41950;55.840;37.442;2024-03-02T06:04:18;100919.47;;;2.62;79.83
56074;BME280;41950;55.840;37.442;2024-03-02T06:06:44;100963.81;;;2.84;80.10
56074;BME280;41950;55.840;37.442;2024-03-02T06:09:20;100948.16;;;2.76;79.82
56074;BME280;41950;55.840;37.442;2024-03-02T06:11:45;100978.72;;;2.95;79.93
56074;BME280;41950;55.840;37.442;2024-03-02T06:14:11;100977.31;;;3.03;80.12
56074;BME280;41950;55.840;37.442;2024-03-02T06:16:37;100980.94;;;3.10;79.90
56074;BME280;41950;55.840;37.442;2024-03-02T06:19:02;100981.72;;;3.07;79.57
56074;BME280;41950;55.840;37.442;2024-03-02T06:21:29;100982.69;;;3.11;79.64
56074;BME280;41950;55.840;37.442;2024-03-02T06:23:54;100970.59;;;3.07;79.50
56074;BME280;41950;55.840;37.442;2024-03-02T06:26:20;100954.88;;;2.98;79.50
56074;BME280;41950;55.840;37.442;2024-03-02T06:28:46;100952.31;;;2.98;79.23
56074;BME280;41950;55.840;37.442;2024-03-02T06:31:12;100867.38;;;2.38;79.10
56074;BME280;41950;55.840;37.442;2024-03-02T06:33:38;100986.19;;;3.13;79.15
56074;BME280;41950;55.840;37.442;2024-03-02T06:36:04;100968.84;;;3.06;79.32
56074;BME280;41950;55.840;37.442;2024-03-02T06:38:30;100985.41;;;3.16;78.93
56074;BME280;41950;55.840;37.442;2024-03-02T06:40:59;100968.78;;;3.04;78.94
56074;BME280;41950;55.840;37.442;2024-03-02T06:43:24;100980.03;;;3.08;78.93
56074;BME280;41950;55.840;37.442;2024-03-02T06:45:51;100986.19;;;3.13;79.11
56074;BME280;41950;55.840;37.442;2024-03-02T06:48:17;100974.22;;;3.14;78.53
56074;BME280;41950;55.840;37.442;2024-03-02T06:50:46;100971.72;;;3.15;78.60
56074;BME280;41950;55.840;37.442;2024-03-02T06:53:14;100958.72;;;3.10;78.23
56074;BME280;41950;55.840;37.442;2024-03-02T06:55:46;100942.56;;;3.13;78.31
56074;BME280;41950;55.840;37.442;2024-03-02T06:58:13;100992.03;;;3.34;77.83
56074;BME280;41950;55.840;37.442;2024-03-02T07:00:42;100957.34;;;3.20;78.17
56074;BME280;41950;55.840;37.442;2024-03-02T07:03:08;100950.66;;;3.25;77.95
56074;BME280;41950;55.840;37.442;2024-03-02T07:05:34;100983.88;;;3.48;77.71
56074;BME280;41950;55.840;37.442;2024-03-02T07:07:59;100941.31;;;3.27;77.76
56074;BME280;41950;55.840;37.442;2024-03-02T07:10:27;100961.34;;;3.37;77.58
56074;BME280;41950;55.840;37.442;2024-03-02T07:12:52;100977.50;;;3.62;77.56
56074;BME280;41950;55.840;37.442;2024-03-02T07:15:18;100982.06;;;3.70;77.18
56074;BME280;41950;55.840;37.442;2024-03-02T07:17:52;100945.78;;;3.60;76.83
56074;BME280;41950;55.840;37.442;2024-03-02T07:20:18;100981.53;;;3.82;76.84
56074;BME280;41950;55.840;37.442;2024-03-02T07:22:44;100929.22;;;3.50;76.78
56074;BME280;41950;55.840;37.442;2024-03-02T07:25:10;100986.03;;;3.88;76.61
56074;BME280;41950;55.840;37.442;2024-03-02T07:27:35;100982.22;;;3.77;76.13
56074;BME280;41950;55.840;37.442;2024-03-02T07:30:02;100956.28;;;3.40;76.42
56074;BME280;41950;55.840;37.442;2024-03-02T07:32:30;100969.31;;;3.47;76.53
56074;BME280;41950;55.840;37.442;2024-03-02T07:34:55;100992.81;;;3.59;76.64
56074;BME280;41950;55.840;37.442;2024-03-02T07:37:23;100995.34;;;3.57;76.63
56074;BME280;41950;55.840;37.442;2024-03-02T07:39:48;100986.69;;;3.55;76.43
56074;BME280;41950;55.840;37.442;2024-03-02T07:42:14;100974.44;;;3.47;76.62
56074;BME280;41950;55.840;37.442;2024-03-02T07:44:40;100982.16;;;3.47;76.87
56074;BME280;41950;55.840;37.442;2024-03-02T07:47:06;100953.88;;;3.45;76.68
56074;BME280;41950;55.840;37.442;2024-03-02T07:49:33;100971.69;;;3.67;76.50
56074;BME280;41950;55.840;37.442;2024-03-02T07:51:58;100973.38;;;3.67;75.99
56074;BME280;41950;55.840;37.442;2024-03-02T07:54:24;100970.72;;;3.64;76.28
56074;BME280;41950;55.840;37.442;2024-03-02T07:56:50;100941.25;;;3.53;76.07
56074;BME280;41950;55.840;37.442;2024-03-02T07:59:15;100972.75;;;3.74;76.07
56074;BME280;41950;55.840;37.442;2024-03-02T08:01:41;100944.19;;;3.63;75.79
56074;BME280;41950;55.840;37.442;2024-03-02T08:04:07;100951.25;;;3.70;75.50
56074;BME280;41950;55.840;37.442;2024-03-02T08:06:33;100972.31;;;3.87;75.42
56074;BME280;41950;55.840;37.442;2024-03-02T08:09:00;100955.13;;;3.85;75.35
56074;BME280;41950;55.840;37.442;2024-03-02T08:11:26;100966.25;;;4.14;74.75
56074;BME280;41950;55.840;37.442;2024-03-02T08:13:56;100948.16;;;4.11;74.73
56074;BME280;41950;55.840;37.442;2024-03-02T08:16:25;100933.91;;;4.20;73.85
56074;BME280;41950;55.840;37.442;2024-03-02T08:18:51;100970.47;;;4.42;73.76
56074;BME280;41950;55.840;37.442;2024-03-02T08:21:18;100927.59;;;4.11;73.71
56074;BME280;41950;55.840;37.442;2024-03-02T08:23:44;100946.28;;;4.35;73.34
56074;BME280;41950;55.840;37.442;2024-03-02T08:26:11;100913.13;;;4.13;73.21
56074;BME280;41950;55.840;37.442;2024-03-02T08:28:37;100973.59;;;4.61;73.18
56074;BME280;41950;55.840;37.442;2024-03-02T08:31:04;100929.44;;;4.45;72.74
56074;BME280;41950;55.840;37.442;2024-03-02T08:33:29;100701.59;;;3.18;72.39
56074;BME280;41950;55.840;37.442;2024-03-02T08:35:56;100949.63;;;4.62;72.16
56074;BME280;41950;55.840;37.442;2024-03-02T08:38:22;100954.03;;;4.67;72.00
56074;BME280;41950;55.840;37.442;2024-03-02T08:40:50;100947.91;;;4.63;71.56
56074;BME280;41950;55.840;37.442;2024-03-02T08:43:16;100975.06;;;4.85;71.64
56074;BME280;41950;55.840;37.442;2024-03-02T08:45:42;100979.16;;;4.77;71.02
56074;BME280;41950;55.840;37.442;2024-03-02T08:48:08;100977.34;;;4.73;71.34
56074;BME280;41950;55.840;37.442;2024-03-02T08:50:35;100966.94;;;4.68;71.35
56074;BME280;41950;55.840;37.442;2024-03-02T08:53:01;100949.53;;;4.59;71.19
56074;BME280;41950;55.840;37.442;2024-03-02T08:55:26;100936.47;;;4.52;70.63
56074;BME280;41950;55.840;37.442;2024-03-02T08:57:53;100966.19;;;4.72;70.86
56074;BME280;41950;55.840;37.442;2024-03-02T09:00:19;100975.69;;;4.75;70.57
56074;BME280;41950;55.840;37.442;2024-03-02T09:02:45;100924.38;;;4.48;70.61
56074;BME280;41950;55.840;37.442;2024-03-02T09:05:11;100917.63;;;4.51;70.26
56074;BME280;41950;55.840;37.442;2024-03-02T09:07:36;100942.06;;;4.67;69.96
56074;BME280;41950;55.840;37.442;2024-03-02T09:10:05;100933.53;;;4.70;69.94
56074;BME280;41950;55.840;37.442;2024-03-02T09:12:31;100932.94;;;4.80;69.46
56074;BME280;41950;55.840;37.442;2024-03-02T09:14:58;100962.94;;;5.12;69.42
56074;BME280;41950;55.840;37.442;2024-03-02T09:17:23;100926.09;;;5.15;68.55
56074;BME280;41950;55.840;37.442;2024-03-02T09:19:49;100941.19;;;5.36;68.41
56074;BME280;41950;55.840;37.442;2024-03-02T09:22:21;100939.97;;;5.56;67.80
56074;BME280;41950;55.840;37.442;2024-03-02T09:24:47;100948.31;;;5.83;67.13
56074;BME280;41950;55.840;37.442;2024-03-02T09:27:12;100953.00;;;6.00;66.18
56074;BME280;41950;55.840;37.442;2024-03-02T09:29:38;100954.63;;;5.96;65.87
56074;BME280;41950;55.840;37.442;2024-03-02T09:32:05;100949.34;;;5.90;65.10
56074;BME280;41950;55.840;37.442;2024-03-02T09:34:31;100925.84;;;5.76;65.42
56074;BME280;41950;55.840;37.442;2024-03-02T09:36:57;100947.81;;;5.98;65.06
56074;BME280;41950;55.840;37.442;2024-03-02T09:39:23;100929.78;;;6.00;65.05
56074;BME280;41950;55.840;37.442;2024-03-02T09:41:51;100921.41;;;6.08;64.60
56074;BME280;41950;55.840;37.442;2024-03-02T09:44:17;100900.44;;;5.92;64.45
56074;BME280;41950;55.840;37.442;2024-03-02T09:46:43;100925.66;;;6.06;64.51
56074;BME280;41950;55.840;37.442;2024-03-02T09:49:12;100908.28;;;5.98;64.51
56074;BME280;41950;55.840;37.442;2024-03-02T09:51:39;100941.38;;;6.18;64.54
56074;BME280;41950;55.840;37.442;2024-03-02T09:54:09;100937.75;;;6.09;64.83
56074;BME280;41950;55.840;37.442;2024-03-02T09:56:35;100933.66;;;6.20;64.15
56074;BME280;41950;55.840;37.442;2024-03-02T09:59:01;100922.84;;;5.96;63.68
56074;BME280;41950;55.840;37.442;2024-03-02T10:01:27;100926.63;;;5.74;64.59
56074;BME280;41950;55.840;37.442;2024-03-02T10:03:53;100912.69;;;5.26;65.49
56074;BME280;41950;55.840;37.442;2024-03-02T10:06:23;100937.16;;;5.47;65.85
56074;BME280;41950;55.840;37.442;2024-03-02T10:08:49;100918.50;;;5.55;65.53
56074;BME280;41950;55.840;37.442;2024-03-02T10:14:11;100944.41;;;6.01;64.98
56074;BME280;41950;55.840;37.442;2024-03-02T10:16:40;100940.94;;;5.99;65.35
56074;BME280;41950;55.840;37.442;2024-03-02T10:21:53;100899.97;;;5.72;64.95
56074;BME280;41950;55.840;37.442;2024-03-02T10:24:19;100945.91;;;5.89;65.01
56074;BME280;41950;55.840;37.442;2024-03-02T10:26:45;100909.53;;;5.76;64.97
56074;BME280;41950;55.840;37.442;2024-03-02T10:29:11;100926.59;;;5.72;64.34
56074;BME280;41950;55.840;37.442;2024-03-02T10:31:39;100934.25;;;5.69;64.58
56074;BME280;41950;55.840;37.442;2024-03-02T10:34:05;100917.84;;;5.64;65.23
56074;BME280;41950;55.840;37.442;2024-03-02T10:36:33;100902.38;;;5.64;64.63
56074;BME280;41950;55.840;37.442;2024-03-02T10:39:02;100949.94;;;5.78;64.60
56074;BME280;41950;55.840;37.442;2024-03-02T10:41:32;100962.28;;;5.92;64.19
56074;BME280;41950;55.840;37.442;2024-03-02T10:43:59;100951.66;;;5.78;64.50
56074;BME280;41950;55.840;37.442;2024-03-02T10:46:29;100930.56;;;5.58;64.25
56074;BME280;41950;55.840;37.442;2024-03-02T10:48:59;100967.97;;;5.78;64.65
56074;BME280;41950;55.840;37.442;2024-03-02T10:51:27;100964.84;;;5.92;64.42
56074;BME280;41950;55.840;37.442;2024-03-02T10:53:54;100953.72;;;5.94;64.13
56074;BME280;41950;55.840;37.442;2024-03-02T10:56:31;100952.69;;;5.87;64.15
56074;BME280;41950;55.840;37.442;2024-03-02T10:59:32;100959.16;;;5.70;64.49
56074;BME280;41950;55.840;37.442;2024-03-02T11:02:03;100955.47;;;5.57;64.54
56074;BME280;41950;55.840;37.442;2024-03-02T11:04:30;100957.84;;;5.48;64.65
56074;BME280;41950;55.840;37.442;2024-03-02T11:07:02;100960.41;;;5.48;65.11
56074;BME280;41950;55.840;37.442;2024-03-02T11:09:29;100964.34;;;5.34;65.00
56074;BME280;41950;55.840;37.442;2024-03-02T11:12:16;100959.00;;;5.26;65.05
56074;BME280;41950;55.840;37.442;2024-03-02T11:14:44;100921.78;;;5.14;65.37
56074;BME280;41950;55.840;37.442;2024-03-02T11:17:11;100941.81;;;5.25;65.34
56074;BME280;41950;55.840;37.442;2024-03-02T11:19:39;100923.75;;;5.22;65.34
56074;BME280;41950;55.840;37.442;2024-03-02T11:22:06;100951.63;;;5.42;65.34
56074;BME280;41950;55.840;37.442;2024-03-02T11:24:33;100946.28;;;5.33;64.97
56074;BME280;41950;55.840;37.442;2024-03-02T11:27:00;100948.78;;;5.30;65.13
56074;BME280;41950;55.840;37.442;2024-03-02T11:32:01;100904.31;;;5.01;64.95
56074;BME280;41950;55.840;37.442;2024-03-02T11:34:34;100944.75;;;5.41;65.66
56074;BME280;41950;55.840;37.442;2024-03-02T11:37:01;100950.78;;;5.41;65.22
56074;BME280;41950;55.840;37.442;2024-03-02T11:39:29;100928.06;;;5.23;65.18
56074;BME280;41950;55.840;37.442;2024-03-02T11:41:56;100906.31;;;5.12;65.48
56074;BME280;41950;55.840;37.442;2024-03-02T11:44:26;100948.50;;;5.19;65.21
56074;BME280;41950;55.840;37.442;2024-03-02T11:46:57;100935.31;;;5.05;65.48
56074;BME280;41950;55.840;37.442;2024-03-02T11:49:41;100834.78;;;4.63;65.66
56074;BME280;41950;55.840;37.442;2024-03-02T11:52:09;100851.72;;;4.89;65.09
56074;BME280;41950;55.840;37.442;2024-03-02T11:54:41;100913.66;;;5.32;65.16
56074;BME280;41950;55.840;37.442;2024-03-02T11:57:17;100890.63;;;5.38;64.99
56074;BME280;41950;55.840;37.442;2024-03-02T11:59:44;100912.78;;;5.69;64.34
56074;BME280;41950;55.840;37.442;2024-03-02T12:02:19;100925.00;;;5.77;64.48
56074;BME280;41950;55.840;37.442;2024-03-02T12:04:46;100900.50;;;5.57;64.16
56074;BME280;41950;55.840;37.442;2024-03-02T12:07:18;100888.66;;;5.26;64.49
56074;BME280;41950;55.840;37.442;2024-03-02T12:09:46;100920.59;;;5.36;64.37
56074;BME280;41950;55.840;37.442;2024-03-02T12:12:11;100927.56;;;5.40;64.75
56074;BME280;41950;55.840;37.442;2024-03-02T12:14:52;100933.78;;;5.48;64.67
56074;BME280;41950;55.840;37.442;2024-03-02T12:17:21;100933.66;;;5.43;64.74
56074;BME280;41950;55.840;37.442;2024-03-02T12:19:47;100930.13;;;5.40;65.16
56074;BME280;41950;55.840;37.442;2024-03-02T12:22:13;100912.34;;;5.13;64.71
56074;BME280;41950;55.840;37.442;2024-03-02T12:24:39;100904.78;;;4.86;64.98
56074;BME280;41950;55.840;37.442;2024-03-02T12:27:05;100939.25;;;4.92;66.28
56074;BME280;41950;55.840;37.442;2024-03-02T12:29:32;100924.50;;;4.85;65.87
56074;BME280;41950;55.840;37.442;2024-03-02T12:31:59;100931.44;;;4.88;66.20
56074;BME280;41950;55.840;37.442;2024-03-02T12:34:26;100931.19;;;4.79;66.28
56074;BME280;41950;55.840;37.442;2024-03-02T12:36:52;100930.19;;;4.72;66.24
56074;BME280;41950;55.840;37.442;2024-03-02T12:39:20;100923.66;;;4.53;66.34
56074;BME280;41950;55.840;37.442;2024-03-02T12:41:49;100909.69;;;4.44;66.97
56074;BME280;41950;55.840;37.442;2024-03-02T12:44:17;100948.97;;;4.70;66.70
56074;BME280;41950;55.840;37.442;2024-03-02T12:46:43;100931.69;;;4.65;66.91
56074;BME280;41950;55.840;37.442;2024-03-02T12:49:11;100953.97;;;4.65;67.13
56074;BME280;41950;55.840;37.442;2024-03-02T12:51:39;100926.81;;;4.43;67.19
56074;BME280;41950;55.840;37.442;2024-03-02T12:54:11;100909.81;;;4.17;67.43
56074;BME280;41950;55.840;37.442;2024-03-02T12:56:37;100941.84;;;4.29;67.92
56074;BME280;41950;55.840;37.442;2024-03-02T12:59:04;100939.38;;;4.32;67.96